Time;durP1;ratioP1;P1;durP2;ratioP2;P2;SDS_P1;SDS_P2;PMS_P1;PMS_P2;Temp;Humidity;BMP_temperature;BMP_pressure;BME280_temperature;BME280_humidity;BME280_pressure;Samples;Min_cycle;Max_cycle;Signal;HPM_P1;HPM_P2
2023/03/04 00:01:29;;;;;;;0.00;0.00;;;;;;;9.01;56.48;102757.25;7361652;19;20021;-60
2023/03/04 00:03:55;;;;;;;0.05;0.05;;;;;;;9.16;56.56;102774.00;7358970;19;20018;-60
2023/03/04 00:06:20;;;;;;;0.00;0.00;;;;;;;9.12;56.88;102772.19;7361156;19;20009;-59
2023/03/04 00:08:46;;;;;;;0.00;0.00;;;;;;;9.15;56.94;102772.25;7362390;19;20077;-60
2023/03/04 00:11:11;;;;;;;0.00;0.00;;;;;;;9.12;56.90;102773.06;7360172;19;20019;-60
2023/03/04 00:13:36;;;;;;;0.00;0.00;;;;;;;9.14;57.01;102776.59;7361041;19;20043;-60
2023/03/04 00:16:02;;;;;;;0.10;0.10;;;;;;;9.09;56.89;102763.47;7358112;19;20024;-59
2023/03/04 00:18:27;;;;;;;0.00;0.00;;;;;;;9.14;57.08;102778.31;7362291;19;20025;-60
2023/03/04 00:20:53;;;;;;;0.00;0.00;;;;;;;9.14;57.08;102775.72;7360055;19;20022;-58
2023/03/04 00:23:18;;;;;;;0.00;0.00;;;;;;;9.08;56.87;102761.75;7360013;19;20011;-60
2023/03/04 00:25:44;;;;;;;0.00;0.00;;;;;;;9.10;57.11;102764.34;7361316;19;20051;-60
2023/03/04 00:28:09;;;;;;;0.00;0.00;;;;;;;9.03;56.64;102755.56;7358927;19;20567;-60
2023/03/04 00:30:34;;;;;;;0.00;0.00;;;;;;;9.11;56.84;102766.09;7357885;19;20041;-60
2023/03/04 00:33:00;;;;;;;0.00;0.00;;;;;;;9.10;56.70;102765.22;7361090;19;20017;-60
2023/03/04 00:35:26;;;;;;;0.00;0.00;;;;;;;9.09;56.52;102763.47;7353679;19;20014;-60
2023/03/04 00:37:51;;;;;;;0.00;0.00;;;;;;;9.09;56.77;102767.81;7357952;19;20003;-60
2023/03/04 00:40:16;;;;;;;0.00;0.00;;;;;;;9.08;56.57;102763.47;7353324;19;20034;-60
2023/03/04 00:42:42;;;;;;;0.00;0.00;;;;;;;8.90;56.84;102730.16;7359259;19;20789;-60
2023/03/04 00:45:08;;;;;;;0.00;0.00;;;;;;;9.07;56.51;102765.19;7358286;19;20595;-60
2023/03/04 00:47:33;;;;;;;0.00;0.00;;;;;;;8.92;56.32;102744.09;7356501;19;20025;-60
2023/03/04 00:49:59;;;;;;;0.00;0.00;;;;;;;8.90;56.37;102734.50;7358482;19;20486;-60
2023/03/04 00:52:24;;;;;;;0.10;0.10;;;;;;;9.04;56.54;102748.63;7357813;19;20050;-60
2023/03/04 00:54:50;;;;;;;0.00;0.00;;;;;;;9.03;56.37;102752.09;7353982;19;20029;-60
2023/03/04 00:57:15;;;;;;;0.00;0.00;;;;;;;8.88;56.68;102726.66;7359791;19;20352;-60
2023/03/04 00:59:42;;;;;;;0.00;0.00;;;;;;;8.91;56.48;102731.03;7358899;19;20025;-60
2023/03/04 01:02:08;;;;;;;0.00;0.00;;;;;;;9.01;56.68;102753.78;7359027;19;20029;-59
2023/03/04 01:04:34;;;;;;;0.00;0.00;;;;;;;9.01;56.86;102751.16;7357753;19;20010;-60
2023/03/04 01:06:59;;;;;;;0.00;0.00;;;;;;;8.77;56.75;102717.78;7357456;19;20038;-59
2023/03/04 01:09:25;;;;;;;0.00;0.00;;;;;;;8.84;56.75;102730.06;7360564;19;20049;-60
2023/03/04 01:11:51;;;;;;;0.03;0.03;;;;;;;8.98;56.55;102748.53;7359607;19;20566;-59
2023/03/04 01:14:17;;;;;;;0.10;0.10;;;;;;;8.93;56.67;102745.84;7356962;19;20014;-60
2023/03/04 01:16:42;;;;;;;0.00;0.00;;;;;;;8.76;56.69;102721.22;7356754;19;20681;-60
2023/03/04 01:19:08;;;;;;;0.00;0.00;;;;;;;8.93;56.38;102753.66;7359309;19;20017;-60
2023/03/04 01:21:33;;;;;;;0.00;0.00;;;;;;;8.75;56.82;102735.97;7353946;19;20018;-59
2023/03/04 01:23:59;;;;;;;0.00;0.00;;;;;;;8.90;56.53;102764.03;7360271;19;20049;-60
2023/03/04 01:26:24;;;;;;;0.10;0.10;;;;;;;8.70;56.84;102732.41;7353863;19;20667;-59
2023/03/04 01:28:49;;;;;;;0.00;0.00;;;;;;;8.81;56.59;102758.66;7358398;19;20879;-60
2023/03/04 01:31:15;;;;;;;0.00;0.00;;;;;;;8.86;56.77;102770.03;7354997;19;20014;-60
2023/03/04 01:33:40;;;;;;;0.10;0.10;;;;;;;8.80;56.25;102759.50;7345340;19;20015;-60
2023/03/04 01:36:06;;;;;;;0.10;0.10;;;;;;;8.68;56.33;102743.66;7359170;19;20093;-60
2023/03/04 01:38:31;;;;;;;0.00;0.00;;;;;;;8.83;56.41;102775.19;7355835;19;20016;-60
2023/03/04 01:40:57;;;;;;;0.00;0.00;;;;;;;8.82;56.62;102770.84;7361340;19;20011;-60
2023/03/04 01:43:25;;;;;;;0.00;0.00;;;;;;;8.81;56.56;102769.06;7357922;19;20026;-60
2023/03/04 01:45:52;;;;;;;0.00;0.00;;;;;;;8.79;56.24;102769.06;7357352;19;20022;-60
2023/03/04 01:48:23;;;;;;;0.00;0.00;;;;;;;8.77;56.16;102759.47;7357210;19;20025;-60
2023/03/04 01:50:49;;;;;;;0.00;0.00;;;;;;;8.76;56.43;102782.00;7358652;19;20459;-60
2023/03/04 01:53:26;;;;;;;0.10;0.10;;;;;;;8.73;56.57;102757.66;7357340;19;20103;-60
2023/03/04 01:56:37;;;;;;;0.00;0.00;;;;;;;8.69;55.96;102750.63;7356545;19;20010;-59
2023/03/04 01:59:11;;;;;;;0.10;0.10;;;;;;;8.70;56.60;102754.97;7251488;19;2004470;-60
2023/03/04 02:01:38;;;;;;;0.00;0.00;;;;;;;8.71;56.47;102754.13;7353647;19;20479;-60
2023/03/04 02:04:04;;;;;;;0.00;0.00;;;;;;;8.68;56.61;102751.47;7354172;19;20014;-60
2023/03/04 02:06:30;;;;;;;0.00;0.00;;;;;;;8.70;56.65;102752.38;7359406;19;20098;-60
2023/03/04 02:08:55;;;;;;;0.00;0.00;;;;;;;8.68;56.89;102748.88;7356893;19;20100;-60
2023/03/04 02:11:20;;;;;;;0.00;0.00;;;;;;;8.60;56.41;102735.69;7360254;19;20546;-60
2023/03/04 02:13:46;;;;;;;0.00;0.00;;;;;;;8.68;56.34;102748.88;7354551;19;20018;-60
2023/03/04 02:16:11;;;;;;;0.10;0.10;;;;;;;8.66;56.15;102751.44;7355841;19;20019;-60
2023/03/04 02:18:37;;;;;;;0.00;0.00;;;;;;;8.63;56.54;102745.31;7350476;19;20027;-60
2023/03/04 02:21:21;;;;;;;0.00;0.00;;;;;;;8.66;56.14;102746.22;7360235;19;20078;-59
2023/03/04 02:23:59;;;;;;;0.00;0.00;;;;;;;8.64;56.58;102747.06;7357286;19;20592;-60
2023/03/04 02:26:28;;;;;;;0.03;0.03;;;;;;;8.48;56.14;102715.53;7357349;19;20302;-60
2023/03/04 02:28:56;;;;;;;0.00;0.00;;;;;;;8.60;56.17;102743.50;7358662;19;20010;-60
2023/03/04 02:31:26;;;;;;;0.00;0.00;;;;;;;8.58;56.35;102737.41;7358804;19;20039;-60
2023/03/04 02:33:54;;;;;;;0.05;0.05;;;;;;;8.59;56.34;102736.56;7358213;19;20035;-60
2023/03/04 02:36:19;;;;;;;0.10;0.10;;;;;;;8.51;56.58;102719.91;7349789;19;20031;-60
2023/03/04 02:38:45;;;;;;;0.00;0.00;;;;;;;8.48;56.50;102720.75;7358893;19;20010;-60
2023/03/04 02:41:15;;;;;;;0.00;0.00;;;;;;;8.57;56.29;102739.16;7357658;19;20077;-60
2023/03/04 02:43:42;;;;;;;0.00;0.00;;;;;;;8.53;56.33;102734.72;7355083;19;20030;-60
2023/03/04 02:46:11;;;;;;;0.10;0.10;;;;;;;8.25;56.44;102685.56;7351469;19;20014;-60
2023/03/04 02:48:36;;;;;;;0.08;0.08;;;;;;;8.41;56.74;102717.97;7357612;19;20014;-60
2023/03/04 02:51:02;;;;;;;0.00;0.00;;;;;;;8.34;56.53;102701.34;7352644;19;20006;-60
2023/03/04 02:53:27;;;;;;;0.00;0.00;;;;;;;8.42;56.80;102719.75;7356390;19;20684;-60
2023/03/04 02:55:53;;;;;;;0.00;0.00;;;;;;;8.38;56.54;102712.75;7349674;19;20003;-60
2023/03/04 02:58:18;;;;;;;0.08;0.08;;;;;;;8.49;56.53;102732.91;7344276;19;20011;-60
2023/03/04 03:00:44;;;;;;;0.05;0.05;;;;;;;8.47;56.57;102729.41;7355482;19;21027;-60
2023/03/04 03:03:09;;;;;;;0.00;0.00;;;;;;;8.48;56.13;102732.88;7348596;19;20426;-60
2023/03/04 03:05:36;;;;;;;0.00;0.00;;;;;;;8.49;56.28;102732.91;7353424;19;20053;-60
2023/03/04 03:08:01;;;;;;;0.00;0.00;;;;;;;8.47;56.49;102729.41;7351891;19;20035;-60
2023/03/04 03:10:27;;;;;;;0.03;0.03;;;;;;;8.45;56.61;102736.28;7355350;19;20010;-60
2023/03/04 03:12:52;;;;;;;0.00;0.00;;;;;;;8.43;56.65;102738.00;7350711;19;20014;-59
2023/03/04 03:15:18;;;;;;;0.00;0.00;;;;;;;8.42;56.35;102731.06;7352819;19;20082;-60
2023/03/04 03:17:44;;;;;;;0.00;0.00;;;;;;;8.44;56.76;102734.53;7354548;19;20789;-59
2023/03/04 03:20:11;;;;;;;0.00;0.00;;;;;;;8.44;56.66;102734.53;7349848;19;20019;-60
2023/03/04 03:22:37;;;;;;;0.00;0.00;;;;;;;8.43;56.68;102732.81;7351672;19;20751;-60
2023/03/04 03:25:04;;;;;;;0.08;0.08;;;;;;;8.41;56.69;102731.88;7353814;19;20010;-60
2023/03/04 03:27:29;;;;;;;0.00;0.00;;;;;;;8.31;56.31;102722.09;7355534;19;20597;-60
2023/03/04 03:29:54;;;;;;;0.10;0.10;;;;;;;8.33;56.88;102715.22;7356923;19;20007;-60
2023/03/04 03:32:20;;;;;;;0.00;0.00;;;;;;;8.38;56.40;102729.22;7357005;19;20121;-60
2023/03/04 03:34:45;;;;;;;0.00;0.00;;;;;;;8.40;56.58;102727.53;7360492;19;20011;-60
2023/03/04 03:37:11;;;;;;;0.00;0.00;;;;;;;8.38;56.74;102723.16;7355091;19;20013;-60
2023/03/04 03:39:37;;;;;;;0.00;0.00;;;;;;;8.32;56.31;102708.25;7361286;19;20672;-60
2023/03/04 03:42:02;;;;;;;0.00;0.00;;;;;;;8.38;56.59;102721.44;7358871;19;20014;-60
2023/03/04 03:44:28;;;;;;;0.00;0.00;;;;;;;8.35;56.56;102721.31;7359886;19;20006;-60
2023/03/04 03:46:53;;;;;;;0.10;0.10;;;;;;;8.15;56.37;102683.63;7360232;19;20470;-60
2023/03/04 03:49:19;;;;;;;0.00;0.00;;;;;;;8.24;56.28;102694.22;7355870;19;20473;-60
2023/03/04 03:51:44;;;;;;;0.00;0.00;;;;;;;8.28;56.74;102706.44;7360803;19;20869;-60
2023/03/04 03:54:09;;;;;;;0.05;0.05;;;;;;;8.34;56.57;102711.75;7359312;19;20010;-60
2023/03/04 03:56:35;;;;;;;0.00;0.00;;;;;;;8.34;56.45;102711.75;7357061;19;20035;-60
2023/03/04 03:59:00;;;;;;;0.00;0.00;;;;;;;8.27;56.54;102704.69;7357653;19;20014;-60
2023/03/04 04:01:26;;;;;;;0.00;0.00;;;;;;;8.31;56.70;102711.69;7356341;19;21662;-57
2023/03/04 04:03:52;;;;;;;0.00;0.00;;;;;;;8.27;56.83;102702.09;7354064;19;20571;-60
2023/03/04 04:06:17;;;;;;;0.00;0.00;;;;;;;8.29;56.50;102703.00;7345170;19;20014;-60
2023/03/04 04:08:42;;;;;;;0.00;0.00;;;;;;;8.28;56.35;102701.25;7359629;19;20018;-60
2023/03/04 04:11:09;;;;;;;0.05;0.05;;;;;;;8.25;56.52;102706.38;7358309;19;20029;-60
2023/03/04 04:13:35;;;;;;;0.00;0.00;;;;;;;8.19;56.56;102701.94;7360119;19;20018;-60
2023/03/04 04:16:00;;;;;;;0.00;0.00;;;;;;;8.15;56.92;102700.13;7358573;19;20006;-60
2023/03/04 04:18:26;;;;;;;0.00;0.00;;;;;;;8.28;56.51;102727.28;7360415;19;20382;-60
2023/03/04 04:20:52;;;;;;;0.00;0.00;;;;;;;8.26;56.92;102729.84;7341183;19;20086;-60
2023/03/04 04:23:17;;;;;;;0.10;0.10;;;;;;;8.27;56.65;102722.91;7351066;19;20018;-60
2023/03/04 04:25:43;;;;;;;0.00;0.00;;;;;;;8.26;56.76;102723.75;7360138;19;20593;-60
2023/03/04 04:28:08;;;;;;;0.00;0.00;;;;;;;8.14;56.58;102706.19;7361873;19;20031;-60
2023/03/04 04:30:34;;;;;;;0.00;0.00;;;;;;;8.17;56.95;102713.19;7358649;19;20042;-60
2023/03/04 04:33:00;;;;;;;0.10;0.10;;;;;;;8.25;56.47;102712.47;7357236;19;20010;-60
2023/03/04 04:35:27;;;;;;;0.00;0.00;;;;;;;8.21;56.76;102705.47;7357921;19;20409;-60
2023/03/04 04:37:52;;;;;;;0.00;0.00;;;;;;;7.90;57.01;102654.53;7356636;19;20749;-60
2023/03/04 04:40:18;;;;;;;0.10;0.10;;;;;;;8.03;56.57;102679.94;7360311;19;20042;-60
2023/03/04 04:42:43;;;;;;;0.00;0.00;;;;;;;8.19;56.85;102708.88;7361402;19;20010;-60
2023/03/04 04:45:09;;;;;;;0.03;0.03;;;;;;;8.25;56.92;102712.47;7358805;19;20038;-60
2023/03/04 04:47:35;;;;;;;0.00;0.00;;;;;;;8.21;56.73;102699.34;7358297;19;20489;-60
2023/03/04 04:50:00;;;;;;;0.00;0.00;;;;;;;8.25;56.84;102711.59;7361397;19;20376;-61
2023/03/04 04:52:25;;;;;;;0.03;0.03;;;;;;;8.21;57.07;102704.56;7358729;19;20019;-60
2023/03/04 04:54:51;;;;;;;0.10;0.10;;;;;;;8.25;56.62;102714.19;7360756;19;20379;-60
2023/03/04 04:57:16;;;;;;;0.00;0.00;;;;;;;8.23;56.78;102718.50;7360442;19;20803;-60
2023/03/04 04:59:42;;;;;;;0.00;0.00;;;;;;;8.11;56.97;102695.72;7361645;19;20031;-61
2023/03/04 05:02:07;;;;;;;0.00;0.00;;;;;;;8.10;56.93;102690.47;7354312;19;20033;-59
2023/03/04 05:04:32;;;;;;;0.10;0.10;;;;;;;8.20;56.56;102713.22;7358149;19;20013;-60
2023/03/04 05:06:58;;;;;;;0.00;0.00;;;;;;;8.23;56.64;102719.38;7359761;19;20018;-59
2023/03/04 05:09:23;;;;;;;0.00;0.00;;;;;;;8.22;56.61;102719.34;7362254;19;20027;-60
2023/03/04 05:11:49;;;;;;;0.00;0.00;;;;;;;8.07;56.77;102697.38;7360564;19;20095;-60
2023/03/04 05:14:15;;;;;;;0.00;0.00;;;;;;;8.13;56.47;102711.34;7358442;19;20006;-59
2023/03/04 05:16:40;;;;;;;0.00;0.00;;;;;;;8.22;56.84;102729.75;7362631;19;20419;-60
2023/03/04 05:19:06;;;;;;;0.00;0.00;;;;;;;8.20;56.98;102728.84;7355021;19;20026;-60
2023/03/04 05:21:31;;;;;;;0.00;0.00;;;;;;;8.20;56.71;102723.63;7358830;19;20234;-60
2023/03/04 05:23:56;;;;;;;0.10;0.10;;;;;;;8.16;56.96;102721.81;7357955;19;20605;-60
2023/03/04 05:26:22;;;;;;;0.00;0.00;;;;;;;8.21;57.24;102725.38;7360307;19;20027;-60
2023/03/04 05:28:47;;;;;;;0.00;0.00;;;;;;;8.20;56.94;102723.63;7357901;19;20023;-60
2023/03/04 05:31:13;;;;;;;0.00;0.00;;;;;;;8.20;56.80;102734.91;7359689;19;20992;-60
2023/03/04 05:33:39;;;;;;;0.00;0.00;;;;;;;8.16;56.90;102727.00;7356290;19;20506;-59
2023/03/04 05:36:06;;;;;;;0.00;0.00;;;;;;;8.20;56.94;102728.84;7356239;19;20536;-60
2023/03/04 05:38:31;;;;;;;0.00;0.00;;;;;;;8.17;57.09;102728.78;7358556;19;20653;-60
2023/03/04 05:40:59;;;;;;;0.00;0.00;;;;;;;8.18;57.03;102720.13;7358443;19;20491;-60
2023/03/04 05:43:26;;;;;;;0.00;0.00;;;;;;;8.07;56.95;102713.00;7356605;19;20018;-60
2023/03/04 05:45:52;;;;;;;0.00;0.00;;;;;;;8.16;56.67;102727.00;7357100;19;20030;-59
2023/03/04 05:48:18;;;;;;;0.00;0.00;;;;;;;8.15;57.07;102731.34;7358524;19;20553;-60
2023/03/04 05:50:44;;;;;;;0.00;0.00;;;;;;;8.12;56.99;102725.22;7355132;19;20109;-59
2023/03/04 05:53:09;;;;;;;0.00;0.00;;;;;;;8.11;56.92;102721.75;7355421;19;20501;-60
2023/03/04 05:55:34;;;;;;;0.00;0.00;;;;;;;8.13;56.99;102732.19;7357305;19;20057;-59
2023/03/04 05:58:00;;;;;;;0.10;0.10;;;;;;;8.09;57.08;102719.94;7356426;19;19998;-60
2023/03/04 06:00:26;;;;;;;0.10;0.10;;;;;;;8.13;56.85;102729.56;7358584;19;20014;-60
2023/03/04 06:02:51;;;;;;;0.00;0.00;;;;;;;7.92;56.93;102697.06;7357964;19;20014;-60
2023/03/04 06:05:17;;;;;;;0.00;0.00;;;;;;;8.02;56.63;102719.81;7355218;19;20030;-60
2023/03/04 06:07:43;;;;;;;0.00;0.00;;;;;;;7.93;56.31;102693.63;7340286;19;20062;-60
2023/03/04 06:10:11;;;;;;;0.00;0.00;;;;;;;8.09;56.09;102726.03;7359642;19;20424;-60
2023/03/04 06:12:37;;;;;;;0.00;0.00;;;;;;;8.09;56.15;102730.34;7357861;19;20038;-60
2023/03/04 06:15:02;;;;;;;0.00;0.00;;;;;;;7.94;56.21;102710.09;7358011;19;25040;-60
2023/03/04 06:17:29;;;;;;;0.00;0.00;;;;;;;8.07;56.28;102733.81;7355681;19;20704;-60
2023/03/04 06:19:54;;;;;;;0.00;0.00;;;;;;;8.01;56.44;102728.50;7359565;19;20025;-58
2023/03/04 06:22:20;;;;;;;0.10;0.10;;;;;;;8.01;56.43;102723.28;7354515;19;20014;-60
2023/03/04 06:24:45;;;;;;;0.00;0.00;;;;;;;7.99;56.71;102730.16;7358924;19;20030;-60
2023/03/04 06:27:12;;;;;;;0.00;0.00;;;;;;;8.03;56.30;102737.19;7356236;19;20007;-60
2023/03/04 06:29:37;;;;;;;0.00;0.00;;;;;;;7.95;56.44;102728.34;7356905;19;20109;-59
2023/03/04 06:32:03;;;;;;;0.10;0.10;;;;;;;8.02;56.31;102740.66;7353922;19;20652;-60
2023/03/04 06:34:28;;;;;;;0.10;0.10;;;;;;;7.99;56.79;102730.16;7354832;19;20026;-58
2023/03/04 06:36:54;;;;;;;0.00;0.00;;;;;;;8.00;56.15;102737.13;7353357;19;20014;-60
2023/03/04 06:39:19;;;;;;;0.10;0.10;;;;;;;7.96;56.53;102729.25;7356679;19;20150;-60
2023/03/04 06:41:45;;;;;;;0.00;0.00;;;;;;;7.96;56.58;102724.91;7355711;19;20011;-60
2023/03/04 06:44:10;;;;;;;0.10;0.10;;;;;;;7.98;56.31;102728.41;7354356;19;20018;-60
2023/03/04 06:46:36;;;;;;;0.00;0.00;;;;;;;7.97;56.38;102726.66;7358448;19;20011;-60
2023/03/04 06:49:02;;;;;;;0.10;0.10;;;;;;;7.92;55.93;102727.41;7358877;19;20018;-60
2023/03/04 06:51:27;;;;;;;0.00;0.00;;;;;;;7.98;56.06;102731.00;7352554;19;20025;-60
2023/03/04 06:53:53;;;;;;;0.00;0.00;;;;;;;7.94;56.57;102737.00;7355629;19;20011;-60
2023/03/04 06:56:18;;;;;;;0.10;0.10;;;;;;;7.96;56.46;102740.53;7350775;19;20029;-60
2023/03/04 06:58:44;;;;;;;0.00;0.00;;;;;;;7.88;56.35;102720.38;7345404;19;20018;-60
2023/03/04 07:01:19;;;;;;;0.00;0.00;;;;;;;7.97;56.47;102739.66;7357112;19;20010;-60
2023/03/04 07:03:45;;;;;;;0.00;0.00;;;;;;;7.92;56.13;102733.50;7358089;19;20017;-60
2023/03/04 07:06:12;;;;;;;0.05;0.05;;;;;;;7.96;56.29;102737.91;7359176;19;20018;-59
2023/03/04 07:08:39;;;;;;;0.00;0.00;;;;;;;7.96;56.47;102737.03;7362186;19;21053;-60
2023/03/04 07:11:04;;;;;;;0.00;0.00;;;;;;;7.81;56.26;102709.00;7360857;19;20361;-60
2023/03/04 07:13:30;;;;;;;0.00;0.00;;;;;;;7.79;56.58;102716.75;7358845;19;20010;-60
2023/03/04 07:15:56;;;;;;;0.10;0.10;;;;;;;7.88;56.32;102731.66;7361778;19;20368;-60
2023/03/04 07:18:21;;;;;;;0.00;0.00;;;;;;;7.90;56.09;102735.16;7361088;19;20518;-60
2023/03/04 07:20:50;;;;;;;0.00;0.00;;;;;;;7.92;56.17;102743.03;7358727;19;20011;-60
2023/03/04 07:23:15;;;;;;;0.10;0.10;;;;;;;7.93;56.18;102742.19;7355226;19;20364;-59
2023/03/04 07:25:41;;;;;;;0.00;0.00;;;;;;;7.92;56.19;102743.91;7361342;19;20042;-60
2023/03/04 07:28:06;;;;;;;0.10;0.10;;;;;;;7.53;56.47;102682.38;7357291;19;20023;-60
2023/03/04 07:30:31;;;;;;;0.00;0.00;;;;;;;7.92;56.31;102753.44;7357249;19;20370;-60
2023/03/04 07:32:57;;;;;;;0.00;0.00;;;;;;;7.80;56.05;102733.22;7361494;19;20053;-60
2023/03/04 07:35:22;;;;;;;0.00;0.00;;;;;;;7.89;56.21;102749.03;7358258;19;20312;-60
2023/03/04 07:37:48;;;;;;;0.08;0.08;;;;;;;7.88;56.04;102742.06;7360349;19;20509;-60
2023/03/04 07:40:13;;;;;;;0.00;0.00;;;;;;;7.83;56.44;102735.91;7358550;19;20025;-60
2023/03/04 07:42:39;;;;;;;0.00;0.00;;;;;;;7.80;56.42;102725.41;7359389;19;20022;-60
2023/03/04 07:45:05;;;;;;;0.10;0.10;;;;;;;7.75;56.40;102720.13;7361004;19;20715;-60
2023/03/04 07:47:31;;;;;;;0.00;0.00;;;;;;;7.76;56.25;102728.81;7358092;19;20273;-60
2023/03/04 07:49:56;;;;;;;0.00;0.00;;;;;;;7.77;56.10;102727.97;7360508;19;20021;-60
2023/03/04 07:52:22;;;;;;;0.03;0.03;;;;;;;7.65;56.04;102706.88;7358296;19;20034;-60
2023/03/04 07:54:47;;;;;;;0.00;0.00;;;;;;;7.88;56.39;102746.41;7359191;19;20992;-60
2023/03/04 07:57:12;;;;;;;0.00;0.00;;;;;;;7.83;55.94;102743.69;7358205;19;21302;-60
2023/03/04 07:59:38;;;;;;;0.10;0.10;;;;;;;7.85;56.17;102752.41;7358832;19;20017;-60
2023/03/04 08:02:03;;;;;;;0.00;0.00;;;;;;;7.74;55.97;102730.50;7357983;19;20074;-60
2023/03/04 08:04:29;;;;;;;0.00;0.00;;;;;;;7.84;56.45;102749.78;7359339;19;20010;-59
2023/03/04 08:06:54;;;;;;;0.10;0.10;;;;;;;7.82;56.33;102746.28;7343476;19;20010;-60
2023/03/04 08:09:19;;;;;;;0.10;0.10;;;;;;;7.88;56.19;102757.69;7357432;19;20018;-59
2023/03/04 08:11:45;;;;;;;0.00;0.00;;;;;;;7.77;56.12;102741.84;7362710;19;20078;-60
2023/03/04 08:14:12;;;;;;;0.10;0.10;;;;;;;7.78;56.26;102742.72;7359144;19;20022;-58
2023/03/04 08:16:38;;;;;;;0.10;0.10;;;;;;;7.87;56.50;102761.13;7360096;19;20010;-60
2023/03/04 08:19:04;;;;;;;0.08;0.08;;;;;;;7.90;56.13;102770.72;7354745;19;20021;-60
2023/03/04 08:21:30;;;;;;;0.00;0.00;;;;;;;7.91;56.41;102775.97;7359444;19;20015;-60
2023/03/04 08:23:58;;;;;;;0.00;0.00;;;;;;;7.92;56.63;102775.13;7360109;19;20032;-59
2023/03/04 08:26:28;;;;;;;;;;;;;;;7.98;56.16;102784.78;7360845;19;20027;-59
2023/03/04 08:28:55;;;;;;;0.00;0.00;;;;;;;7.94;56.20;102776.00;7358743;19;19961;-60
2023/03/04 08:31:21;;;;;;;0.00;0.00;;;;;;;7.95;56.28;102779.50;7357475;19;20390;-60
2023/03/04 08:33:46;;;;;;;0.00;0.00;;;;;;;7.79;56.57;102749.69;7336869;19;20006;-60
2023/03/04 08:36:13;;;;;;;0.00;0.00;;;;;;;7.94;56.34;102783.81;7352037;19;20070;-59
2023/03/04 08:38:39;;;;;;;0.00;0.00;;;;;;;7.81;56.16;102755.81;7354141;19;20026;-60
2023/03/04 08:41:04;;;;;;;0.00;0.00;;;;;;;7.95;56.47;102780.38;7357979;19;20726;-60
2023/03/04 08:43:30;;;;;;;0.10;0.10;;;;;;;7.97;56.60;102773.50;7355271;19;20036;-59
2023/03/04 08:45:56;;;;;;;0.10;0.10;;;;;;;7.92;56.52;102763.84;7357959;19;20666;-60
2023/03/04 08:48:22;;;;;;;0.00;0.00;;;;;;;8.00;56.38;102772.66;7356261;19;20018;-59
2023/03/04 08:50:49;;;;;;;0.00;0.00;;;;;;;8.00;56.41;102776.13;7358291;19;20040;-60
2023/03/04 08:53:16;;;;;;;0.00;0.00;;;;;;;7.91;56.61;102757.75;7359174;19;20597;-60
2023/03/04 08:55:42;;;;;;;0.10;0.10;;;;;;;8.03;56.50;102771.00;7356161;19;20015;-60
2023/03/04 08:58:08;;;;;;;0.00;0.00;;;;;;;8.03;56.23;102773.63;7355575;19;20006;-60
2023/03/04 09:00:35;;;;;;;0.00;0.00;;;;;;;8.09;56.28;102777.19;7355619;19;20034;-60
2023/03/04 09:03:02;;;;;;;0.00;0.00;;;;;;;8.10;56.35;102768.53;7355340;19;20089;-60
2023/03/04 09:05:28;;;;;;;0.00;0.00;;;;;;;8.14;56.68;102772.97;7356931;19;20101;-60
2023/03/04 09:07:53;;;;;;;0.00;0.00;;;;;;;8.15;56.53;102772.09;7357168;19;20011;-60
2023/03/04 09:10:19;;;;;;;0.00;0.00;;;;;;;8.18;56.67;102769.56;7356337;19;20074;-60
2023/03/04 09:12:45;;;;;;;0.00;0.00;;;;;;;8.14;56.18;102755.63;7359177;19;20022;-60
2023/03/04 09:15:10;;;;;;;0.00;0.00;;;;;;;8.21;56.58;102761.81;7355988;19;20010;-60
2023/03/04 09:17:36;;;;;;;0.00;0.00;;;;;;;8.24;56.49;102767.97;7357131;19;20045;-60
2023/03/04 09:20:02;;;;;;;0.00;0.00;;;;;;;8.27;56.17;102761.97;7355712;19;20006;-60
2023/03/04 09:22:28;;;;;;;0.00;0.00;;;;;;;8.19;56.58;102743.56;7355649;19;20010;-60
2023/03/04 09:24:53;;;;;;;0.00;0.00;;;;;;;8.29;56.30;102755.03;7352822;19;20022;-60
2023/03/04 09:27:18;;;;;;;0.00;0.00;;;;;;;8.30;56.49;102756.78;7356658;19;20854;-60
2023/03/04 09:29:44;;;;;;;0.00;0.00;;;;;;;8.29;56.42;102757.66;7350588;19;20038;-60
2023/03/04 09:32:10;;;;;;;0.00;0.00;;;;;;;7.84;56.49;102672.63;7355837;19;20039;-59
2023/03/04 09:34:35;;;;;;;0.00;0.00;;;;;;;8.37;56.10;102774.34;7354410;19;20010;-60
2023/03/04 09:37:00;;;;;;;0.00;0.00;;;;;;;8.38;56.08;102775.22;7358542;19;20050;-59
2023/03/04 09:39:26;;;;;;;0.08;0.08;;;;;;;8.33;56.08;102760.34;7356429;19;20017;-60
2023/03/04 09:41:56;;;;;;;0.00;0.00;;;;;;;8.41;56.10;102776.13;7357252;19;20484;-59
2023/03/04 09:44:29;;;;;;;0.00;0.00;;;;;;;8.44;55.70;102776.22;7356293;19;20089;-60
2023/03/04 09:46:58;;;;;;;0.00;0.00;;;;;;;8.44;55.59;102784.03;7357072;19;20045;-60
2023/03/04 09:49:24;;;;;;;0.00;0.00;;;;;;;8.43;56.10;102795.28;7357823;19;20584;-60
2023/03/04 09:51:53;;;;;;;0.00;0.00;;;;;;;8.48;55.97;102787.56;7357602;19;20776;-60
2023/03/04 09:54:27;;;;;;;0.00;0.00;;;;;;;8.47;55.78;102791.03;7356947;19;20019;-60
2023/03/04 09:57:05;;;;;;;0.00;0.00;;;;;;;8.51;55.94;102788.47;7354260;19;20077;-60
2023/03/04 09:59:42;;;;;;;;;;;;;;;8.56;55.86;102792.06;7354513;19;20078;-60
2023/03/04 10:02:33;;;;;;;0.00;0.00;;;;;;;8.57;55.87;102788.63;7357448;19;19978;-60
2023/03/04 10:05:01;;;;;;;0.00;0.00;;;;;;;8.54;55.25;102791.16;7354387;19;20023;-59
2023/03/04 10:07:33;;;;;;;0.00;0.00;;;;;;;8.53;55.47;102786.81;7352853;19;20106;-59
2023/03/04 10:10:09;;;;;;;0.10;0.10;;;;;;;8.53;55.38;102786.81;7353131;19;20006;-59
2023/03/04 10:12:39;;;;;;;0.00;0.00;;;;;;;8.55;55.45;102781.63;7349648;19;20090;-60
2023/03/04 10:15:15;;;;;;;0.10;0.10;;;;;;;8.15;55.21;102717.47;7345188;19;20085;-60
2023/03/04 10:17:47;;;;;;;0.00;0.00;;;;;;;8.56;55.47;102776.44;7353941;19;20038;-60
2023/03/04 10:20:23;;;;;;;0.00;0.00;;;;;;;8.61;55.37;102788.66;7351403;19;20104;-60
2023/03/04 10:22:51;;;;;;;0.00;0.00;;;;;;;8.61;55.22;102786.06;7354350;19;20021;-60
2023/03/04 10:25:19;;;;;;;0.00;0.00;;;;;;;8.63;55.17;102777.44;7354996;19;20398;-59
2023/03/04 10:28:05;;;;;;;0.00;0.00;;;;;;;8.66;55.23;102789.63;7356022;19;20010;-60
2023/03/04 10:30:56;;;;;;;0.03;0.03;;;;;;;8.70;55.43;102783.63;7251808;19;2004339;-60
2023/03/04 10:33:25;;;;;;;0.00;0.00;;;;;;;8.68;54.95;102775.78;7251633;19;2004717;-60
2023/03/04 10:36:01;;;;;;;0.03;0.03;;;;;;;8.73;54.85;102778.50;7351103;19;20010;-60
2023/03/04 10:38:34;;;;;;;0.08;0.08;;;;;;;8.75;54.77;102776.78;7352627;19;20014;-60
2023/03/04 10:41:00;;;;;;;0.00;0.00;;;;;;;8.75;55.16;102776.78;7354182;19;20010;-60
2023/03/04 10:43:26;;;;;;;0.00;0.00;;;;;;;8.60;55.12;102740.03;7354392;19;20027;-60
2023/03/04 10:45:57;;;;;;;0.00;0.00;;;;;;;8.82;54.88;102768.25;7353645;19;20019;-60
2023/03/04 10:48:28;;;;;;;0.00;0.00;;;;;;;8.86;54.75;102767.41;7354548;19;20006;-60
2023/03/04 10:51:11;;;;;;;0.00;0.00;;;;;;;8.91;54.55;102757.94;7353742;19;20038;-60
2023/03/04 10:53:41;;;;;;;0.05;0.05;;;;;;;8.93;54.17;102758.00;7353050;19;20589;-60
2023/03/04 10:56:33;;;;;;;0.10;0.10;;;;;;;8.98;54.59;102753.75;7353486;19;20029;-60
2023/03/04 10:59:40;;;;;;;0.00;0.00;;;;;;;9.01;54.30;102749.44;7250408;19;2004370;-60
2023/03/04 11:02:27;;;;;;;0.00;0.00;;;;;;;9.04;54.66;102749.50;7245635;19;2004452;-59
2023/03/04 11:05:04;;;;;;;0.00;0.00;;;;;;;9.04;54.20;102739.06;7348980;19;20063;-60
2023/03/04 11:07:29;;;;;;;0.03;0.03;;;;;;;9.03;54.23;102726.91;7350805;19;20754;-60
2023/03/04 11:10:05;;;;;;;0.00;0.00;;;;;;;9.08;54.02;102735.69;7352139;19;20007;-60
2023/03/04 11:12:33;;;;;;;0.00;0.00;;;;;;;9.12;53.96;102720.94;7352154;19;20020;-60
2023/03/04 11:14:59;;;;;;;0.00;0.00;;;;;;;9.13;53.75;102727.94;7351685;19;20015;-60
2023/03/04 11:17:47;;;;;;;0.00;0.00;;;;;;;9.19;53.82;102722.81;7355635;19;20024;-62
2023/03/04 11:20:28;;;;;;;0.00;0.00;;;;;;;9.19;54.00;102721.94;7355176;19;20014;-60
2023/03/04 11:22:56;;;;;;;0.00;0.00;;;;;;;9.08;53.52;102698.31;7353836;19;20018;-60
2023/03/04 11:25:40;;;;;;;0.00;0.00;;;;;;;9.23;53.60;102713.31;7352666;19;20010;-60
2023/03/04 11:28:17;;;;;;;0.00;0.00;;;;;;;9.23;53.17;102713.31;7354251;19;20014;-60
2023/03/04 11:30:59;;;;;;;0.00;0.00;;;;;;;9.28;53.51;102711.66;7352786;19;20011;-59
2023/03/04 11:33:41;;;;;;;0.08;0.08;;;;;;;9.32;53.13;102714.28;7351254;19;20039;-56
2023/03/04 11:36:30;;;;;;;0.00;0.00;;;;;;;9.34;53.43;102711.75;7352298;19;20471;-54